Time;durP1;ratioP1;P1;durP2;ratioP2;P2;SDS_P1;SDS_P2;PMS_P1;PMS_P2;Temp;Humidity;BMP_temperature;BMP_pressure;BME280_temperature;BME280_humidity;BME280_pressure;Samples;Min_cycle;Max_cycle;Signal;HPM_P1;HPM_P2
2023/08/21 00:00:46;;;;;;;11.13;6.60;;;;;;;25.28;nan;95555.31;5074684;28;20139;-81
2023/08/21 00:03:11;;;;;;;11.48;6.60;;;;;;;25.30;nan;95554.97;5073378;28;20070;-81
2023/08/21 00:05:37;;;;;;;10.88;7.10;;;;;;;25.38;nan;95564.81;5073651;28;20094;-81
2023/08/21 00:08:02;;;;;;;10.25;6.35;;;;;;;25.21;nan;95563.31;5075103;28;20039;-81
2023/08/21 00:10:30;;;;;;;16.58;7.57;;;;;;;25.07;nan;95556.81;5073055;28;20047;-81
2023/08/21 00:12:55;;;;;;;11.18;7.03;;;;;;;24.83;nan;95530.69;5073780;28;20056;-81
2023/08/21 00:15:20;;;;;;;14.50;6.75;;;;;;;24.58;nan;95484.06;5072593;28;20128;-81
2023/08/21 00:17:46;;;;;;;12.52;7.03;;;;;;;25.17;nan;95570.63;5072354;28;20040;-81
2023/08/21 00:20:11;;;;;;;13.77;6.57;;;;;;;25.03;nan;95554.00;5053333;28;20485;-81
2023/08/21 00:22:37;;;;;;;18.73;6.95;;;;;;;25.02;nan;95578.81;5055310;28;20040;-80
2023/08/21 00:25:04;;;;;;;10.50;6.78;;;;;;;24.83;nan;95558.63;5053821;28;20079;-80
2023/08/21 00:27:29;;;;;;;13.85;7.22;;;;;;;24.91;nan;95560.38;5052648;28;20040;-81
2023/08/21 00:29:55;;;;;;;11.15;7.03;;;;;;;24.28;nan;95491.94;5053908;28;20078;-81
2023/08/21 00:32:20;;;;;;;11.10;6.82;;;;;;;24.91;nan;95581.28;5053446;28;20183;-81
2023/08/21 00:34:46;;;;;;;12.18;6.53;;;;;;;24.69;nan;95550.19;5055383;28;20037;-81
2023/08/21 00:37:11;;;;;;;12.90;7.22;;;;;;;24.90;nan;95588.63;5054665;28;20108;-81
2023/08/21 00:39:37;;;;;;;12.35;6.75;;;;;;;24.76;nan;95572.03;5053435;28;20041;-81
2023/08/21 00:42:02;;;;;;;12.10;7.03;;;;;;;24.76;nan;95573.94;5053119;28;20044;-81
2023/08/21 00:44:27;;;;;;;11.13;6.00;;;;;;;24.51;nan;95546.28;5052819;28;20039;-81
2023/08/21 00:46:53;;;;;;;14.13;6.45;;;;;;;24.70;nan;95578.88;5054533;28;20761;-81
2023/08/21 00:49:20;;;;;;;11.07;6.30;;;;;;;24.65;nan;95578.34;5053792;28;20032;-81
2023/08/21 00:51:46;;;;;;;9.55;7.03;;;;;;;24.56;nan;95567.72;5053040;28;20036;-81
2023/08/21 00:54:11;;;;;;;13.93;7.38;;;;;;;24.53;nan;95571.91;5052979;28;20040;-81
2023/08/21 00:56:37;;;;;;;14.95;6.13;;;;;;;24.68;nan;95591.19;5050787;28;20033;-81
2023/08/21 00:59:02;;;;;;;11.43;7.00;;;;;;;24.49;nan;95560.16;5052534;28;20467;-81
2023/08/21 01:01:28;;;;;;;11.65;6.00;;;;;;;24.61;nan;95591.84;5050951;28;20033;-82
2023/08/21 01:03:54;;;;;;;10.48;6.32;;;;;;;24.55;nan;95579.69;5052638;28;20056;-81
2023/08/21 01:06:20;;;;;;;15.02;6.10;;;;;;;24.22;nan;95534.00;5050990;28;20068;-81
2023/08/21 01:09:23;;;;;;;9.98;5.88;;;;;;;24.50;nan;95591.56;5050934;28;20033;-81
2023/08/21 01:12:03;;;;;;;9.07;6.35;;;;;;;24.57;nan;95596.38;5030063;28;20045;-81
2023/08/21 01:14:46;;;;;;;9.82;6.28;;;;;;;24.29;nan;95561.25;5051211;28;20053;-82
2023/08/21 01:17:14;;;;;;;13.15;6.50;;;;;;;24.36;nan;95593.94;5052611;28;20028;-81
2023/08/21 01:19:46;;;;;;;8.93;6.20;;;;;;;24.19;nan;95567.97;5067151;28;20147;-81
2023/08/21 01:22:12;;;;;;;12.68;6.18;;;;;;;24.28;nan;95570.53;5071900;28;20067;-81
2023/08/21 01:24:37;;;;;;;9.60;5.75;;;;;;;24.23;nan;95587.84;5072281;28;20126;-82
2023/08/21 01:27:03;;;;;;;10.23;6.32;;;;;;;24.35;nan;95599.72;5071009;28;20432;-81
2023/08/21 01:29:29;;;;;;;8.02;6.40;;;;;;;23.96;nan;95531.00;5070873;28;20052;-81
2023/08/21 01:32:17;;;;;;;9.85;6.50;;;;;;;24.29;nan;95601.13;5070306;28;20407;-81
2023/08/21 01:34:43;;;;;;;9.98;6.45;;;;;;;24.14;nan;95591.84;5055269;28;20036;-81
2023/08/21 01:37:10;;;;;;;11.02;6.30;;;;;;;23.82;nan;95559.31;5070640;28;20041;-82
2023/08/21 01:39:35;;;;;;;11.57;6.25;;;;;;;23.81;nan;95548.81;5071812;28;20032;-81
2023/08/21 01:42:01;;;;;;;11.35;6.82;;;;;;;24.03;nan;95582.66;5070173;28;20032;-81
2023/08/21 01:44:26;;;;;;;14.05;6.57;;;;;;;24.00;nan;95584.16;5072076;28;20035;-82
2023/08/21 01:46:53;;;;;;;12.23;6.55;;;;;;;24.30;nan;95610.84;5070544;28;20032;-81
2023/08/21 01:49:19;;;;;;;11.63;6.90;;;;;;;24.23;nan;95593.28;5071558;28;20037;-81
2023/08/21 01:51:45;;;;;;;11.25;6.60;;;;;;;24.06;nan;95590.09;5087423;28;20504;-81
2023/08/21 01:54:10;;;;;;;10.25;6.35;;;;;;;23.56;nan;95514.94;5072015;28;20356;-81
2023/08/21 01:56:36;;;;;;;10.90;6.22;;;;;;;23.97;nan;95598.38;5070938;28;20092;-81
2023/08/21 01:59:02;;;;;;;11.65;6.40;;;;;;;23.64;nan;95536.41;5071169;28;20149;-82
2023/08/21 02:01:27;;;;;;;12.90;6.78;;;;;;;23.75;nan;95552.94;5072023;28;20127;-82
2023/08/21 02:03:53;;;;;;;17.67;6.68;;;;;;;24.05;nan;95594.72;5070936;28;20037;-81
2023/08/21 02:06:18;;;;;;;10.35;6.60;;;;;;;23.72;nan;95561.75;5070753;28;20029;-82
2023/08/21 02:08:43;;;;;;;11.25;6.32;;;;;;;23.75;nan;95561.84;5070326;28;20502;-82
2023/08/21 02:11:09;;;;;;;11.30;7.20;;;;;;;23.70;nan;95555.91;5070318;28;20435;-81
2023/08/21 02:13:34;;;;;;;15.07;7.30;;;;;;;23.57;nan;95527.34;5072422;28;20546;-81
2023/08/21 02:16:00;;;;;;;15.40;6.90;;;;;;;24.08;nan;95596.75;5070523;28;20064;-81
2023/08/21 02:18:25;;;;;;;13.70;6.88;;;;;;;23.71;nan;95539.31;5070281;28;20044;-81
2023/08/21 02:20:51;;;;;;;12.50;6.68;;;;;;;24.15;nan;95594.19;5070240;28;20028;-81
2023/08/21 02:23:16;;;;;;;11.38;7.35;;;;;;;23.82;nan;95553.88;5070206;28;20035;-82
2023/08/21 02:25:42;;;;;;;17.45;8.05;;;;;;;23.92;nan;95559.94;5070485;28;20148;-82
2023/08/21 02:28:07;;;;;;;20.90;7.97;;;;;;;22.89;nan;95419.19;5070306;28;20085;-82
2023/08/21 02:30:33;;;;;;;11.80;7.13;;;;;;;23.67;nan;95535.72;5072009;28;20130;-82
2023/08/21 02:32:58;;;;;;;14.65;7.82;;;;;;;23.96;nan;95580.53;5072842;28;20031;-81
2023/08/21 02:35:24;;;;;;;13.57;7.32;;;;;;;23.72;nan;95559.84;5072652;28;20033;-81
2023/08/21 02:37:49;;;;;;;14.90;7.20;;;;;;;23.59;nan;95541.28;5070984;28;20033;-81
2023/08/21 02:40:15;;;;;;;18.33;7.10;;;;;;;23.88;nan;95578.03;5072781;28;20032;-82
2023/08/21 02:42:40;;;;;;;13.02;6.78;;;;;;;23.75;nan;95585.41;5072655;28;20035;-81
2023/08/21 02:45:09;;;;;;;12.68;6.53;;;;;;;23.59;nan;95552.91;5072013;28;20060;-80
2023/08/21 02:47:36;;;;;;;9.70;6.65;;;;;;;23.89;nan;95599.31;5071822;28;20481;-80
2023/08/21 02:50:06;;;;;;;12.60;6.63;;;;;;;23.76;nan;95576.16;5075585;28;20028;-80
2023/08/21 02:52:33;;;;;;;11.07;6.45;;;;;;;23.72;nan;95595.03;5078092;28;20078;-81
2023/08/21 02:55:00;;;;;;;11.25;6.90;;;;;;;23.49;nan;95563.47;5078963;28;20043;-80
2023/08/21 02:57:27;;;;;;;10.77;6.65;;;;;;;23.40;nan;95552.75;5079067;28;20037;-80
2023/08/21 02:59:53;;;;;;;14.68;6.85;;;;;;;23.53;nan;95586.78;5076898;28;20033;-80
2023/08/21 03:02:19;;;;;;;13.38;7.43;;;;;;;23.37;nan;95558.84;5074241;28;20032;-80
2023/08/21 03:04:45;;;;;;;13.02;7.00;;;;;;;23.56;nan;95605.06;5075916;28;20398;-80
2023/08/21 03:07:10;;;;;;;10.95;6.40;;;;;;;23.42;nan;95591.09;5075021;28;20583;-80
2023/08/21 03:09:40;;;;;;;13.55;7.10;;;;;;;23.21;nan;95560.72;5076334;28;20060;-80
2023/08/21 03:12:06;;;;;;;16.83;7.03;;;;;;;23.06;nan;95544.09;5075956;28;20495;-81
2023/08/21 03:14:31;;;;;;;9.75;6.78;;;;;;;23.35;nan;95575.44;5076827;28;20487;-80
2023/08/21 03:16:57;;;;;;;11.15;7.38;;;;;;;23.22;nan;95544.16;5076459;28;20036;-80
2023/08/21 03:19:22;;;;;;;13.63;6.72;;;;;;;23.18;nan;95542.50;5075984;28;20044;-80
2023/08/21 03:21:48;;;;;;;12.68;7.07;;;;;;;22.99;nan;95524.97;5074984;28;20097;-80
2023/08/21 03:24:13;;;;;;;14.40;7.38;;;;;;;23.50;nan;95611.81;5075633;28;20025;-80
2023/08/21 03:26:39;;;;;;;11.88;6.63;;;;;;;23.09;nan;95569.69;5075886;28;20094;-80
2023/08/21 03:29:04;;;;;;;20.10;7.50;;;;;;;23.28;nan;95593.38;5075497;28;20036;-80
2023/08/21 03:31:30;;;;;;;13.60;6.72;;;;;;;23.19;nan;95588.13;5075543;28;20029;-80
2023/08/21 03:33:56;;;;;;;12.98;7.35;;;;;;;23.09;nan;95600.22;5073390;28;20036;-80
2023/08/21 03:36:30;;;;;;;20.17;7.28;;;;;;;23.02;nan;95591.13;5074971;28;20051;-80
2023/08/21 03:38:57;;;;;;;12.32;7.50;;;;;;;23.27;nan;95624.28;5074750;28;20487;-80
2023/08/21 03:41:23;;;;;;;9.90;6.75;;;;;;;22.86;nan;95565.91;5073822;28;20032;-80
2023/08/21 03:43:48;;;;;;;13.73;7.70;;;;;;;23.15;nan;95606.19;5074693;28;20040;-80
2023/08/21 03:46:13;;;;;;;10.82;7.85;;;;;;;22.83;nan;95578.19;5074437;28;20039;-80
2023/08/21 03:48:39;;;;;;;16.75;8.07;;;;;;;22.77;nan;95552.53;5075682;28;20031;-80
2023/08/21 03:51:04;;;;;;;10.10;7.75;;;;;;;22.90;nan;95610.06;5073952;28;20115;-80
2023/08/21 03:53:30;;;;;;;14.35;7.10;;;;;;;23.03;nan;95631.34;5073223;28;20034;-81
2023/08/21 03:55:55;;;;;;;12.55;7.43;;;;;;;22.82;nan;95570.41;5073511;28;20123;-81
2023/08/21 03:58:21;;;;;;;12.90;7.40;;;;;;;22.60;nan;95575.16;5072080;28;20063;-82
2023/08/21 04:00:46;;;;;;;10.88;7.22;;;;;;;22.73;nan;95610.31;5072175;28;20387;-81
2023/08/21 04:03:12;;;;;;;21.23;7.90;;;;;;;22.80;nan;95605.94;5072615;28;20102;-81
2023/08/21 04:05:37;;;;;;;14.98;8.45;;;;;;;22.98;nan;95619.97;5072373;28;20119;-81
2023/08/21 04:08:03;;;;;;;13.20;7.22;;;;;;;22.65;nan;95583.06;5074099;28;20024;-81
2023/08/21 04:10:28;;;;;;;17.83;8.43;;;;;;;22.49;nan;95563.25;5073006;28;20522;-81
2023/08/21 04:12:53;;;;;;;17.33;8.23;;;;;;;22.91;nan;95615.13;5073602;28;20028;-81
2023/08/21 04:15:19;;;;;;;16.88;8.23;;;;;;;23.01;nan;95633.59;5073478;28;20040;-81
2023/08/21 04:17:44;;;;;;;13.85;8.60;;;;;;;22.66;nan;95568.38;5071782;28;20036;-81
2023/08/21 04:20:10;;;;;;;22.33;8.50;;;;;;;23.04;nan;95622.09;5072673;28;20099;-81
2023/08/21 04:22:36;;;;;;;22.02;9.63;;;;;;;23.04;nan;95624.00;5074738;28;20085;-80
2023/08/21 04:25:02;;;;;;;35.20;9.07;;;;;;;22.93;nan;95588.53;5057865;28;20055;-80
2023/08/21 04:27:28;;;;;;;16.33;8.68;;;;;;;23.18;nan;95626.38;5074688;28;20044;-80
2023/08/21 04:29:53;;;;;;;20.52;9.32;;;;;;;23.11;nan;95607.22;5075366;28;20043;-80
2023/08/21 04:32:21;;;;;;;20.23;10.07;;;;;;;23.07;nan;95588.16;5075594;28;20035;-81
2023/08/21 04:34:47;;;;;;;25.25;9.95;;;;;;;23.13;nan;95613.06;5073291;28;20048;-81
2023/08/21 04:37:12;;;;;;;18.65;8.93;;;;;;;22.92;nan;95580.78;5075732;28;20032;-81
2023/08/21 04:39:38;;;;;;;27.75;10.20;;;;;;;23.46;nan;95638.78;5073696;28;20036;-81
2023/08/21 04:42:03;;;;;;;15.55;8.35;;;;;;;23.35;nan;95624.16;5073832;28;20036;-81
2023/08/21 04:44:30;;;;;;;16.17;9.13;;;;;;;23.38;nan;95617.25;5074654;28;20073;-81
2023/08/21 04:46:56;;;;;;;19.92;9.40;;;;;;;23.43;nan;95615.09;5075188;28;20028;-81
2023/08/21 04:49:21;;;;;;;18.25;8.65;;;;;;;23.54;nan;95633.59;5074686;28;20114;-80
2023/08/21 04:51:46;;;;;;;21.25;8.75;;;;;;;23.34;nan;95613.69;5074747;28;20039;-80
2023/08/21 04:54:12;;;;;;;20.75;9.27;;;;;;;23.60;nan;95643.03;5075311;28;20530;-81
2023/08/21 04:56:37;;;;;;;28.02;9.65;;;;;;;23.35;nan;95624.16;5075226;28;20510;-80
2023/08/21 04:59:03;;;;;;;16.13;8.63;;;;;;;23.29;nan;95638.25;5075538;28;20032;-80
2023/08/21 05:01:28;;;;;;;15.40;8.93;;;;;;;23.28;nan;95606.91;5073607;28;20040;-80
2023/08/21 05:03:55;;;;;;;20.00;9.40;;;;;;;23.18;nan;95588.47;5074175;28;20029;-82
2023/08/21 05:06:20;;;;;;;23.17;9.38;;;;;;;23.69;nan;95657.22;5072633;28;20035;-81
2023/08/21 05:08:46;;;;;;;26.23;8.88;;;;;;;23.35;nan;95596.28;5073061;28;20135;-81
2023/08/21 05:11:11;;;;;;;18.20;9.50;;;;;;;23.43;nan;95600.78;5071126;28;20131;-82
2023/08/21 05:13:36;;;;;;;19.20;9.73;;;;;;;23.86;nan;95665.03;5072952;28;20475;-81
2023/08/21 05:16:02;;;;;;;24.77;10.60;;;;;;;23.69;nan;95643.69;5071955;28;20095;-82
2023/08/21 05:18:28;;;;;;;16.73;9.45;;;;;;;23.76;nan;95652.78;5070607;28;20056;-81
2023/08/21 05:20:55;;;;;;;21.88;9.50;;;;;;;23.66;nan;95622.69;5071209;28;20029;-81
2023/08/21 05:23:21;;;;;;;22.88;9.35;;;;;;;23.42;nan;95574.88;5071223;28;20597;-82
2023/08/21 05:25:48;;;;;;;23.30;9.13;;;;;;;23.61;nan;95621.03;5070821;28;20056;-82
2023/08/21 05:28:14;;;;;;;18.00;8.27;;;;;;;23.60;nan;95619.47;5071789;28;20028;-83
2023/08/21 05:30:40;;;;;;;21.75;8.88;;;;;;;23.83;nan;95677.34;5071171;28;20034;-81
2023/08/21 05:33:06;;;;;;;22.02;9.35;;;;;;;23.74;nan;95646.91;5072658;28;20398;-81
2023/08/21 05:35:35;;;;;;;28.08;9.65;;;;;;;23.94;nan;95663.31;5071100;28;20489;-81
2023/08/21 05:38:02;;;;;;;18.73;8.15;;;;;;;23.85;nan;95639.88;5070883;28;20464;-81
2023/08/21 05:40:28;;;;;;;25.85;8.63;;;;;;;23.95;nan;95667.59;5071267;28;20043;-81
2023/08/21 05:42:53;;;;;;;21.55;8.65;;;;;;;23.89;nan;95637.25;5073177;28;20033;-81
2023/08/21 05:45:18;;;;;;;18.30;8.50;;;;;;;23.80;nan;95642.81;5071586;28;20043;-82
2023/08/21 05:47:44;;;;;;;16.52;8.40;;;;;;;23.79;nan;95627.72;5071923;28;20032;-82
2023/08/21 05:50:09;;;;;;;16.15;8.10;;;;;;;24.06;nan;95636.94;5072921;28;20043;-82
2023/08/21 05:52:35;;;;;;;12.80;8.02;;;;;;;23.56;nan;95550.13;5070834;28;20108;-82
2023/08/21 05:55:00;;;;;;;17.05;8.65;;;;;;;23.88;nan;95605.13;5070503;28;20189;-80
2023/08/21 05:57:26;;;;;;;24.70;9.30;;;;;;;24.17;nan;95642.63;5071569;28;20029;-80
2023/08/21 05:59:51;;;;;;;15.60;8.60;;;;;;;24.11;nan;95622.31;5072230;28;20043;-81
2023/08/21 06:02:16;;;;;;;23.85;8.73;;;;;;;24.09;nan;95609.16;5072296;28;20536;-80
2023/08/21 06:04:43;;;;;;;16.38;9.02;;;;;;;24.47;nan;95659.28;5071056;28;20032;-81
2023/08/21 06:07:09;;;;;;;24.02;9.63;;;;;;;24.48;nan;95663.56;5072094;28;20081;-81
2023/08/21 06:09:36;;;;;;;20.00;8.70;;;;;;;24.00;nan;95592.28;5071824;28;20059;-80
2023/08/21 06:12:02;;;;;;;24.85;9.50;;;;;;;24.27;nan;95612.31;5071644;28;20025;-80
2023/08/21 06:14:30;;;;;;;17.48;8.40;;;;;;;24.52;nan;95648.16;5070436;28;20021;-80
2023/08/21 06:17:01;;;;;;;18.52;8.82;;;;;;;24.29;nan;95618.19;5070391;28;20028;-80
2023/08/21 06:19:27;;;;;;;16.77;8.43;;;;;;;24.76;nan;95658.81;5070365;28;20064;-81
2023/08/21 06:21:53;;;;;;;19.40;8.82;;;;;;;24.64;nan;95639.94;5068228;28;20290;-80
2023/08/21 06:24:18;;;;;;;24.45;9.35;;;;;;;24.66;nan;95647.72;5070690;28;20040;-81
2023/08/21 06:26:43;;;;;;;19.35;8.50;;;;;;;24.60;nan;95628.22;5075900;28;20479;-81
2023/08/21 06:29:09;;;;;;;18.40;8.68;;;;;;;24.81;nan;95644.19;5076307;28;20114;-80
2023/08/21 06:31:34;;;;;;;17.98;7.88;;;;;;;24.84;nan;95640.78;5075405;28;20162;-81
2023/08/21 06:34:00;;;;;;;28.75;9.15;;;;;;;24.79;nan;95624.78;5076669;28;20468;-81
2023/08/21 06:36:25;;;;;;;18.70;8.55;;;;;;;25.13;nan;95674.78;5075038;28;20028;-81
2023/08/21 06:38:50;;;;;;;18.15;7.70;;;;;;;25.13;nan;95667.44;5075619;28;20059;-81
2023/08/21 06:41:16;;;;;;;20.27;8.68;;;;;;;25.11;nan;95660.78;5074574;28;20451;-80
2023/08/21 06:43:41;;;;;;;14.05;7.80;;;;;;;25.21;nan;95658.31;5077329;28;20028;-81
2023/08/21 06:46:07;;;;;;;21.38;8.07;;;;;;;25.18;nan;95648.16;5074869;28;20024;-81
2023/08/21 06:48:34;;;;;;;12.75;7.72;;;;;;;25.36;nan;95673.75;5075382;28;20471;-81
2023/08/21 06:51:02;;;;;;;28.85;7.50;;;;;;;25.38;nan;95657.13;5075238;28;20077;-81
2023/08/21 06:53:28;;;;;;;22.40;8.48;;;;;;;25.38;nan;95655.19;5074664;28;20031;-81
2023/08/21 06:55:54;;;;;;;19.35;7.90;;;;;;;25.51;nan;95674.84;5075010;28;20035;-81
2023/08/21 06:58:19;;;;;;;18.38;7.72;;;;;;;25.19;nan;95625.31;5076005;28;20123;-81
2023/08/21 07:00:45;;;;;;;22.50;8.60;;;;;;;25.37;nan;95682.69;5076009;28;20035;-81
2023/08/21 07:03:10;;;;;;;15.43;8.40;;;;;;;25.22;nan;95635.47;5075783;28;20103;-81
2023/08/21 07:05:37;;;;;;;16.20;8.48;;;;;;;25.44;nan;95644.03;5074085;28;20322;-81
2023/08/21 07:08:03;;;;;;;24.63;9.00;;;;;;;25.53;nan;95671.78;5075613;28;20037;-81
2023/08/21 07:10:29;;;;;;;26.38;9.75;;;;;;;25.51;nan;95676.75;5075313;28;20115;-81
2023/08/21 07:12:55;;;;;;;17.50;9.18;;;;;;;25.58;nan;95658.72;5075119;28;20035;-81
2023/08/21 07:15:21;;;;;;;25.33;9.15;;;;;;;25.47;nan;95635.19;5073589;28;20029;-81
2023/08/21 07:17:46;;;;;;;28.13;8.93;;;;;;;25.55;nan;95621.41;5073739;28;20064;-81
2023/08/21 07:20:12;;;;;;;22.63;9.80;;;;;;;25.89;nan;95668.63;5074959;28;20067;-81
2023/08/21 07:22:38;;;;;;;27.13;9.00;;;;;;;25.94;nan;95645.84;5074337;28;20037;-81
2023/08/21 07:25:04;;;;;;;18.95;7.68;;;;;;;26.00;nan;95649.84;5073415;28;20477;-81
2023/08/21 07:27:30;;;;;;;19.63;8.13;;;;;;;26.13;nan;95664.81;5074901;28;20039;-80
2023/08/21 07:29:56;;;;;;;16.25;8.60;;;;;;;26.19;nan;95655.22;5074776;28;20024;-80
2023/08/21 07:32:23;;;;;;;20.77;9.05;;;;;;;26.00;nan;95639.75;5073895;28;20541;-80
2023/08/21 07:34:53;;;;;;;18.55;8.70;;;;;;;26.27;nan;95656.94;5074807;28;20040;-80
2023/08/21 07:37:18;;;;;;;17.55;7.88;;;;;;;25.86;nan;95578.94;5064015;28;20469;-81
2023/08/21 07:39:44;;;;;;;18.33;7.72;;;;;;;25.98;nan;95606.69;5066578;28;20326;-80
2023/08/21 07:42:12;;;;;;;18.17;7.90;;;;;;;26.44;nan;95653.75;5072972;28;20028;-81
2023/08/21 07:44:38;;;;;;;20.45;7.90;;;;;;;26.61;nan;95659.84;5100087;28;20032;-81
2023/08/21 07:47:03;;;;;;;14.60;6.93;;;;;;;26.36;nan;95588.72;5073677;28;20042;-81
2023/08/21 07:49:29;;;;;;;16.65;6.75;;;;;;;26.41;nan;95585.69;5073024;28;20036;-81
2023/08/21 07:51:54;;;;;;;21.67;6.88;;;;;;;26.79;nan;95650.00;5094405;28;20119;-81
2023/08/21 07:54:20;;;;;;;17.63;6.60;;;;;;;26.81;nan;95653.94;5072159;28;20502;-81
2023/08/21 07:56:45;;;;;;;18.10;6.72;;;;;;;26.62;nan;95599.63;5072740;28;20032;-81
2023/08/21 07:59:11;;;;;;;14.90;7.00;;;;;;;26.59;nan;95589.47;5074318;28;20029;-81
2023/08/21 08:01:36;;;;;;;22.98;6.18;;;;;;;26.91;nan;95625.34;5071171;28;20043;-81
2023/08/21 08:04:02;;;;;;;17.75;7.18;;;;;;;26.79;nan;95603.75;5073868;28;20564;-81
2023/08/21 08:06:27;;;;;;;13.77;7.32;;;;;;;27.06;nan;95629.06;5072150;28;20433;-81
2023/08/21 08:08:53;;;;;;;10.93;6.95;;;;;;;27.20;nan;95632.75;5068946;28;20106;-81
2023/08/21 08:11:18;;;;;;;12.07;6.18;;;;;;;27.23;nan;95632.03;5073981;28;20094;-81
2023/08/21 08:13:43;;;;;;;12.45;6.88;;;;;;;26.63;nan;95533.19;5105854;28;20036;-80
2023/08/21 08:16:09;;;;;;;17.83;6.30;;;;;;;27.10;nan;95592.56;5081237;28;20036;-80
2023/08/21 08:18:34;;;;;;;17.25;7.15;;;;;;;27.17;nan;95575.53;5076010;28;20049;-81
2023/08/21 08:21:00;;;;;;;12.70;6.22;;;;;;;27.18;nan;95586.06;5072943;28;20041;-80
2023/08/21 08:23:25;;;;;;;20.50;5.80;;;;;;;27.64;nan;95624.78;5072298;28;20103;-81
2023/08/21 08:25:51;;;;;;;13.10;6.97;;;;;;;27.60;nan;95606.81;5072387;28;20033;-80
2023/08/21 08:28:16;;;;;;;12.77;6.20;;;;;;;27.74;nan;95619.81;5071712;28;20033;-81
2023/08/21 08:30:42;;;;;;;14.73;6.50;;;;;;;27.62;nan;95588.16;5072131;28;20047;-81
2023/08/21 08:33:07;;;;;;;20.58;6.35;;;;;;;27.81;nan;95617.16;5079050;28;20056;-81
2023/08/21 08:35:32;;;;;;;16.33;6.93;;;;;;;27.81;nan;95612.50;5074844;28;20043;-81
2023/08/21 08:37:58;;;;;;;8.65;6.13;;;;;;;27.90;nan;95595.84;5075581;28;20041;-81
2023/08/21 08:40:23;;;;;;;10.80;5.97;;;;;;;28.10;nan;95610.06;5073907;28;20068;-81
2023/08/21 08:42:49;;;;;;;14.77;5.88;;;;;;;28.14;nan;95595.31;5076822;28;20049;-80
2023/08/21 08:45:14;;;;;;;13.07;5.93;;;;;;;28.09;nan;95581.22;5073877;28;20506;-81
2023/08/21 08:47:41;;;;;;;15.95;6.25;;;;;;;28.22;nan;95586.06;5073646;28;20444;-81
2023/08/21 08:50:08;;;;;;;9.65;5.78;;;;;;;28.35;nan;95611.09;5072951;28;20049;-81
2023/08/21 08:52:40;;;;;;;12.25;5.78;;;;;;;28.30;nan;95595.09;5072480;28;20054;-81
2023/08/21 08:55:06;;;;;;;12.45;6.00;;;;;;;28.17;nan;95561.06;5072945;28;20040;-81
2023/08/21 08:57:33;;;;;;;12.50;6.28;;;;;;;28.60;nan;95601.19;5073012;28;20128;-81
2023/08/21 08:59:59;;;;;;;13.20;5.93;;;;;;;28.28;nan;95545.59;5074330;28;20036;-81
2023/08/21 09:02:26;;;;;;;19.38;5.97;;;;;;;28.52;nan;95588.66;5073512;28;20044;-81
2023/08/21 09:04:52;;;;;;;14.10;5.78;;;;;;;28.70;nan;95600.44;5070362;28;20418;-82
2023/08/21 09:07:20;;;;;;;16.00;5.90;;;;;;;28.67;nan;95586.81;5070965;28;20210;-81
2023/08/21 09:09:49;;;;;;;11.00;5.72;;;;;;;28.79;nan;95597.44;5072483;28;20036;-82
2023/08/21 09:12:15;;;;;;;19.60;6.60;;;;;;;28.70;nan;95584.06;5070852;28;20571;-82
2023/08/21 09:14:41;;;;;;;9.88;5.57;;;;;;;28.78;nan;95582.22;5071206;28;20064;-82
2023/08/21 09:17:07;;;;;;;13.40;6.43;;;;;;;28.93;nan;95602.19;5072878;28;20082;-81
2023/08/21 09:19:33;;;;;;;19.98;6.00;;;;;;;28.88;nan;95581.50;5071305;28;20064;-82
2023/08/21 09:22:00;;;;;;;9.57;5.45;;;;;;;28.96;nan;95563.22;5071647;28;20044;-81
2023/08/21 09:24:25;;;;;;;9.88;4.70;;;;;;;28.73;nan;95508.84;5072217;28;20033;-81
2023/08/21 09:26:51;;;;;;;18.17;6.25;;;;;;;29.30;nan;95591.06;5072676;28;20523;-82
2023/08/21 09:29:17;;;;;;;11.50;5.70;;;;;;;29.35;nan;95575.13;5071350;28;20355;-81
2023/08/21 09:31:45;;;;;;;10.70;5.05;;;;;;;29.49;nan;95586.13;5072651;28;20360;-82
2023/08/21 09:34:10;;;;;;;11.38;5.25;;;;;;;29.37;nan;95561.09;5073210;28;20025;-82
2023/08/21 09:36:39;;;;;;;13.85;5.20;;;;;;;29.49;nan;95574.41;5072175;28;20062;-81
2023/08/21 09:39:06;;;;;;;12.13;5.88;;;;;;;29.31;nan;95566.09;5071762;28;20029;-82
2023/08/21 09:41:31;;;;;;;7.28;5.20;;;;;;;29.53;nan;95575.97;5070818;28;20025;-82
2023/08/21 09:44:00;;;;;;;11.70;5.05;;;;;;;29.44;nan;95544.72;5071299;28;20032;-80
2023/08/21 09:46:26;;;;;;;14.48;6.35;;;;;;;29.38;nan;95516.97;5072719;28;20040;-80
2023/08/21 09:48:53;;;;;;;15.57;5.68;;;;;;;29.71;nan;95556.91;5071628;28;20453;-80
2023/08/21 09:51:19;;;;;;;11.90;5.30;;;;;;;29.33;nan;95481.81;5073286;28;20036;-80
2023/08/21 09:53:44;;;;;;;9.48;5.40;;;;;;;29.53;nan;95506.88;5072114;28;20352;-81
2023/08/21 09:56:11;;;;;;;20.83;5.28;;;;;;;30.05;nan;95560.13;5071518;28;20032;-80
2023/08/21 09:58:36;;;;;;;17.20;6.28;;;;;;;30.67;nan;95563.25;5070864;28;20562;-81
2023/08/21 10:01:14;;;;;;;9.32;4.82;;;;;;;31.42;nan;95557.59;5070943;28;20160;-80
2023/08/21 10:03:41;;;;;;;11.57;4.80;;;;;;;32.37;nan;95545.28;5071466;28;20042;-82
2023/08/21 10:06:09;;;;;;;9.27;5.03;;;;;;;33.15;nan;95533.53;5072033;28;20048;-81
2023/08/21 10:08:42;;;;;;;8.10;4.50;;;;;;;34.20;nan;95551.78;5071733;28;20028;-81
2023/08/21 10:11:08;;;;;;;12.38;5.10;;;;;;;34.72;nan;95496.25;5070699;28;20097;-82
2023/08/21 10:13:36;;;;;;;10.75;4.10;;;;;;;35.77;nan;95556.06;5071566;28;20028;-82
2023/08/21 10:16:02;;;;;;;10.20;4.50;;;;;;;36.29;nan;95522.16;5071729;28;20029;-82
2023/08/21 10:18:32;;;;;;;13.35;3.83;;;;;;;37.00;nan;95539.69;5071668;28;20044;-81
2023/08/21 10:21:11;;;;;;;6.35;4.13;;;;;;;37.41;nan;95541.72;5071270;28;20029;-82
2023/08/21 10:23:38;;;;;;;10.70;5.10;;;;;;;37.56;nan;95504.13;5070539;28;20035;-82
2023/08/21 10:26:06;;;;;;;8.38;4.10;;;;;;;38.07;nan;95520.81;5069982;28;20564;-82
2023/08/21 10:29:07;;;;;;;8.93;3.70;;;;;;;38.41;nan;95529.19;5071206;28;20032;-82
2023/08/21 10:31:36;;;;;;;;;;;;;;;38.27;nan;95526.88;5053002;28;20044;-82
2023/08/21 10:34:10;;;;;;;8.85;4.30;;;;;;;38.05;nan;95435.41;5069700;28;19916;-82
2023/08/21 10:36:44;;;;;;;11.55;4.20;;;;;;;38.76;nan;95520.91;5071071;28;20028;-82
2023/08/21 10:39:18;;;;;;;9.20;4.30;;;;;;;38.34;nan;95478.78;5069942;28;20115;-82
2023/08/21 10:42:13;;;;;;;6.43;3.80;;;;;;;38.84;nan;95506.34;5071308;28;20029;-82
2023/08/21 10:44:42;;;;;;;9.35;3.78;;;;;;;39.31;nan;95505.50;5071807;28;20040;-82
2023/08/21 10:47:30;;;;;;;7.57;3.55;;;;;;;39.24;nan;95506.53;5070081;28;20467;-81
2023/08/21 10:49:57;;;;;;;10.27;3.85;;;;;;;38.98;nan;95464.31;5070302;28;20032;-82
2023/08/21 10:52:25;;;;;;;7.00;3.85;;;;;;;39.18;nan;95500.03;5071088;28;20037;-82
2023/08/21 10:54:59;;;;;;;7.30;4.18;;;;;;;38.90;nan;95504.56;5073262;28;20064;-82
2023/08/21 10:57:26;;;;;;;8.73;3.95;;;;;;;39.15;nan;95495.38;5071213;28;20051;-82
2023/08/21 10:59:54;;;;;;;7.85;3.75;;;;;;;39.02;nan;95502.97;5070839;28;20142;-82
2023/08/21 11:02:20;;;;;;;9.18;3.53;;;;;;;38.96;nan;95468.75;5070907;28;20115;-82
2023/08/21 11:04:46;;;;;;;15.10;4.75;;;;;;;38.77;nan;95494.72;5071722;28;20102;-82
2023/08/21 11:07:12;;;;;;;7.57;4.07;;;;;;;38.07;nan;95471.72;5070868;28;20058;-82
2023/08/21 11:09:38;;;;;;;9.65;4.03;;;;;;;37.22;nan;95468.78;5073122;28;20047;-82
2023/08/21 11:12:12;;;;;;;5.45;3.90;;;;;;;36.17;nan;95431.69;5075885;28;20348;-82
2023/08/21 11:14:39;;;;;;;8.38;3.60;;;;;;;36.65;nan;95478.59;5077166;28;20065;-81
2023/08/21 11:17:05;;;;;;;7.05;4.68;;;;;;;36.33;nan;95484.16;5076659;28;20040;-81
2023/08/21 11:19:34;;;;;;;9.95;4.03;;;;;;;35.83;nan;95396.28;5076502;28;20080;-81
2023/08/21 11:22:03;;;;;;;12.07;3.90;;;;;;;36.56;nan;95472.91;5072232;28;20135;-81
2023/08/21 11:24:38;;;;;;;9.35;3.90;;;;;;;37.04;nan;95471.25;5075063;28;20497;-81
2023/08/21 11:27:09;;;;;;;6.28;3.42;;;;;;;37.32;nan;95473.19;5073119;28;20032;-81
2023/08/21 11:29:43;;;;;;;8.32;3.67;;;;;;;37.89;nan;95465.97;5074248;28;20442;-81
2023/08/21 11:32:19;;;;;;;5.50;3.83;;;;;;;37.84;nan;95411.19;5075379;28;20040;-82
2023/08/21 11:34:50;;;;;;;5.93;3.80;;;;;;;38.45;nan;95454.28;5075494;28;20556;-81
2023/08/21 11:37:18;;;;;;;7.22;3.83;;;;;;;38.98;nan;95472.63;5074496;28;20102;-82
2023/08/21 11:39:51;;;;;;;6.53;3.78;;;;;;;39.06;nan;95447.41;5075478;28;20052;-82
2023/08/21 11:42:18;;;;;;;4.40;3.47;;;;;;;39.42;nan;95453.19;5074065;28;20475;-82